sensor_id;sensor_type;location;lat;lon;timestamp;P1;durP1;ratioP1;P2;durP2;ratioP2
20846;SDS011;10584;50.854;12.902;2023-03-13T00:03:10;16.80;;;4.67;;
20846;SDS011;10584;50.854;12.902;2023-03-13T00:08:31;20.57;;;4.50;;
20846;SDS011;10584;50.854;12.902;2023-03-13T00:13:54;17.40;;;4.70;;
20846;SDS011;10584;50.854;12.902;2023-03-13T00:19:17;17.57;;;4.63;;
20846;SDS011;10584;50.854;12.902;2023-03-13T00:24:38;17.67;;;3.80;;
20846;SDS011;10584;50.854;12.902;2023-03-13T00:30:00;16.47;;;4.27;;
20846;SDS011;10584;50.854;12.902;2023-03-13T00:35:21;21.10;;;4.70;;
20846;SDS011;10584;50.854;12.902;2023-03-13T00:40:43;10.43;;;3.43;;
20846;SDS011;10584;50.854;12.902;2023-03-13T00:46:05;22.33;;;4.23;;
20846;SDS011;10584;50.854;12.902;2023-03-13T00:51:27;19.60;;;4.47;;
20846;SDS011;10584;50.854;12.902;2023-03-13T00:56:49;20.63;;;3.97;;
20846;SDS011;10584;50.854;12.902;2023-03-13T01:02:11;16.90;;;3.40;;
20846;SDS011;10584;50.854;12.902;2023-03-13T01:07:33;16.43;;;3.50;;
20846;SDS011;10584;50.854;12.902;2023-03-13T01:12:54;19.30;;;3.40;;
20846;SDS011;10584;50.854;12.902;2023-03-13T01:18:17;15.03;;;3.70;;
20846;SDS011;10584;50.854;12.902;2023-03-13T01:23:40;11.10;;;3.30;;
20846;SDS011;10584;50.854;12.902;2023-03-13T01:29:02;17.57;;;4.00;;
20846;SDS011;10584;50.854;12.902;2023-03-13T01:34:24;14.03;;;3.40;;
20846;SDS011;10584;50.854;12.902;2023-03-13T01:39:46;12.00;;;3.40;;
20846;SDS011;10584;50.854;12.902;2023-03-13T01:45:48;16.97;;;3.63;;
20846;SDS011;10584;50.854;12.902;2023-03-13T01:51:10;18.07;;;3.30;;
20846;SDS011;10584;50.854;12.902;2023-03-13T01:56:55;22.03;;;3.40;;
20846;SDS011;10584;50.854;12.902;2023-03-13T02:02:22;17.83;;;3.57;;
20846;SDS011;10584;50.854;12.902;2023-03-13T02:13:15;20.10;;;3.43;;
20846;SDS011;10584;50.854;12.902;2023-03-13T02:18:39;11.43;;;2.97;;
20846;SDS011;10584;50.854;12.902;2023-03-13T02:24:07;21.70;;;3.53;;
20846;SDS011;10584;50.854;12.902;2023-03-13T02:29:37;18.20;;;3.40;;
20846;SDS011;10584;50.854;12.902;2023-03-13T02:35:07;14.57;;;2.77;;
20846;SDS011;10584;50.854;12.902;2023-03-13T02:40:35;13.80;;;3.27;;
20846;SDS011;10584;50.854;12.902;2023-03-13T02:51:28;15.47;;;3.27;;
20846;SDS011;10584;50.854;12.902;2023-03-13T02:57:03;20.37;;;2.57;;
20846;SDS011;10584;50.854;12.902;2023-03-13T03:02:25;15.87;;;2.77;;
20846;SDS011;10584;50.854;12.902;2023-03-13T03:07:48;23.73;;;3.27;;
20846;SDS011;10584;50.854;12.902;2023-03-13T03:13:10;15.10;;;2.77;;
20846;SDS011;10584;50.854;12.902;2023-03-13T03:18:32;18.30;;;4.10;;
20846;SDS011;10584;50.854;12.902;2023-03-13T03:23:56;20.37;;;2.87;;
20846;SDS011;10584;50.854;12.902;2023-03-13T03:29:18;14.30;;;3.00;;
20846;SDS011;10584;50.854;12.902;2023-03-13T03:34:43;13.43;;;3.00;;
20846;SDS011;10584;50.854;12.902;2023-03-13T03:40:06;17.60;;;3.03;;
20846;SDS011;10584;50.854;12.902;2023-03-13T03:45:29;13.97;;;2.90;;
20846;SDS011;10584;50.854;12.902;2023-03-13T03:50:51;18.87;;;2.93;;
20846;SDS011;10584;50.854;12.902;2023-03-13T03:56:14;15.07;;;3.30;;
20846;SDS011;10584;50.854;12.902;2023-03-13T04:01:42;17.10;;;2.97;;
20846;SDS011;10584;50.854;12.902;2023-03-13T04:07:04;14.07;;;2.40;;
20846;SDS011;10584;50.854;12.902;2023-03-13T04:12:27;14.37;;;3.13;;
20846;SDS011;10584;50.854;12.902;2023-03-13T04:17:50;16.07;;;2.77;;
20846;SDS011;10584;50.854;12.902;2023-03-13T04:23:14;15.70;;;2.40;;
20846;SDS011;10584;50.854;12.902;2023-03-13T04:28:36;15.43;;;3.37;;
20846;SDS011;10584;50.854;12.902;2023-03-13T04:34:00;17.83;;;3.23;;
20846;SDS011;10584;50.854;12.902;2023-03-13T04:39:44;17.40;;;3.30;;
20846;SDS011;10584;50.854;12.902;2023-03-13T04:45:12;18.67;;;3.13;;
20846;SDS011;10584;50.854;12.902;2023-03-13T04:50:54;14.57;;;2.70;;
20846;SDS011;10584;50.854;12.902;2023-03-13T04:56:36;10.73;;;2.00;;
20846;SDS011;10584;50.854;12.902;2023-03-13T05:02:26;11.43;;;2.80;;
20846;SDS011;10584;50.854;12.902;2023-03-13T05:08:15;20.00;;;2.90;;
20846;SDS011;10584;50.854;12.902;2023-03-13T05:13:55;14.13;;;3.00;;
20846;SDS011;10584;50.854;12.902;2023-03-13T05:19:38;13.47;;;2.77;;
20846;SDS011;10584;50.854;12.902;2023-03-13T05:25:28;9.57;;;2.23;;
20846;SDS011;10584;50.854;12.902;2023-03-13T05:31:02;15.47;;;2.47;;
20846;SDS011;10584;50.854;12.902;2023-03-13T05:36:43;11.77;;;2.77;;
20846;SDS011;10584;50.854;12.902;2023-03-13T05:42:23;17.13;;;3.30;;
20846;SDS011;10584;50.854;12.902;2023-03-13T05:48:06;13.87;;;2.80;;
20846;SDS011;10584;50.854;12.902;2023-03-13T05:53:51;12.47;;;2.27;;
20846;SDS011;10584;50.854;12.902;2023-03-13T05:59:31;12.77;;;2.30;;
20846;SDS011;10584;50.854;12.902;2023-03-13T06:05:16;10.37;;;2.17;;
20846;SDS011;10584;50.854;12.902;2023-03-13T06:10:39;8.13;;;2.57;;
20846;SDS011;10584;50.854;12.902;2023-03-13T06:16:00;14.87;;;2.13;;
20846;SDS011;10584;50.854;12.902;2023-03-13T06:21:48;11.47;;;2.33;;
20846;SDS011;10584;50.854;12.902;2023-03-13T06:27:10;14.13;;;2.53;;
20846;SDS011;10584;50.854;12.902;2023-03-13T06:32:32;11.10;;;2.50;;
20846;SDS011;10584;50.854;12.902;2023-03-13T06:37:54;11.80;;;2.40;;
20846;SDS011;10584;50.854;12.902;2023-03-13T06:43:15;9.47;;;2.20;;
20846;SDS011;10584;50.854;12.902;2023-03-13T06:48:37;11.10;;;2.83;;
20846;SDS011;10584;50.854;12.902;2023-03-13T06:54:00;9.60;;;2.50;;
20846;SDS011;10584;50.854;12.902;2023-03-13T06:59:22;10.07;;;1.93;;
20846;SDS011;10584;50.854;12.902;2023-03-13T07:04:44;5.30;;;2.10;;
20846;SDS011;10584;50.854;12.902;2023-03-13T07:10:06;9.07;;;2.63;;
20846;SDS011;10584;50.854;12.902;2023-03-13T07:15:29;5.77;;;2.10;;
20846;SDS011;10584;50.854;12.902;2023-03-13T07:20:52;8.10;;;1.83;;
20846;SDS011;10584;50.854;12.902;2023-03-13T07:26:15;6.00;;;1.70;;
20846;SDS011;10584;50.854;12.902;2023-03-13T07:31:37;4.90;;;1.37;;
20846;SDS011;10584;50.854;12.902;2023-03-13T07:36:59;6.87;;;2.00;;
20846;SDS011;10584;50.854;12.902;2023-03-13T07:42:20;5.40;;;1.33;;
20846;SDS011;10584;50.854;12.902;2023-03-13T07:47:44;3.27;;;1.43;;
20846;SDS011;10584;50.854;12.902;2023-03-13T07:53:06;6.23;;;1.67;;
20846;SDS011;10584;50.854;12.902;2023-03-13T07:58:31;4.20;;;1.30;;
20846;SDS011;10584;50.854;12.902;2023-03-13T08:03:55;4.80;;;1.50;;
20846;SDS011;10584;50.854;12.902;2023-03-13T08:09:18;4.20;;;1.30;;
20846;SDS011;10584;50.854;12.902;2023-03-13T08:14:39;2.77;;;1.10;;
20846;SDS011;10584;50.854;12.902;2023-03-13T08:20:01;2.63;;;0.93;;
20846;SDS011;10584;50.854;12.902;2023-03-13T08:25:23;5.87;;;1.30;;
20846;SDS011;10584;50.854;12.902;2023-03-13T08:30:44;4.40;;;1.10;;
20846;SDS011;10584;50.854;12.902;2023-03-13T08:41:36;3.70;;;1.17;;
20846;SDS011;10584;50.854;12.902;2023-03-13T08:47:00;6.60;;;1.23;;
20846;SDS011;10584;50.854;12.902;2023-03-13T08:52:21;5.50;;;1.30;;
20846;SDS011;10584;50.854;12.902;2023-03-13T08:57:43;2.47;;;1.13;;
20846;SDS011;10584;50.854;12.902;2023-03-13T09:03:05;3.23;;;1.30;;
20846;SDS011;10584;50.854;12.902;2023-03-13T09:08:27;3.37;;;1.20;;
20846;SDS011;10584;50.854;12.902;2023-03-13T09:13:50;4.47;;;1.30;;
20846;SDS011;10584;50.854;12.902;2023-03-13T09:19:11;3.47;;;1.20;;
20846;SDS011;10584;50.854;12.902;2023-03-13T09:24:33;3.80;;;1.37;;
20846;SDS011;10584;50.854;12.902;2023-03-13T09:29:55;5.03;;;1.80;;
20846;SDS011;10584;50.854;12.902;2023-03-13T09:35:17;3.60;;;1.37;;
20846;SDS011;10584;50.854;12.902;2023-03-13T09:40:43;1.90;;;1.10;;
20846;SDS011;10584;50.854;12.902;2023-03-13T09:46:30;4.37;;;1.53;;
20846;SDS011;10584;50.854;12.902;2023-03-13T09:52:23;4.17;;;1.63;;
20846;SDS011;10584;50.854;12.902;2023-03-13T09:58:00;2.10;;;1.10;;
20846;SDS011;10584;50.854;12.902;2023-03-13T10:03:31;1.53;;;1.03;;
20846;SDS011;10584;50.854;12.902;2023-03-13T10:08:54;1.37;;;0.93;;
20846;SDS011;10584;50.854;12.902;2023-03-13T10:14:26;1.63;;;1.13;;
20846;SDS011;10584;50.854;12.902;2023-03-13T10:20:27;1.77;;;1.20;;
20846;SDS011;10584;50.854;12.902;2023-03-13T10:25:53;1.70;;;1.10;;
20846;SDS011;10584;50.854;12.902;2023-03-13T10:31:24;4.10;;;1.30;;
20846;SDS011;10584;50.854;12.902;2023-03-13T10:36:59;2.73;;;1.27;;
20846;SDS011;10584;50.854;12.902;2023-03-13T10:42:30;2.00;;;1.17;;
20846;SDS011;10584;50.854;12.902;2023-03-13T10:48:00;3.47;;;1.37;;
20846;SDS011;10584;50.854;12.902;2023-03-13T10:58:52;3.93;;;1.57;;
20846;SDS011;10584;50.854;12.902;2023-03-13T11:04:32;1.40;;;1.30;;
20846;SDS011;10584;50.854;12.902;2023-03-13T11:09:58;2.13;;;1.50;;
20846;SDS011;10584;50.854;12.902;2023-03-13T11:16:21;1.57;;;1.30;;
20846;SDS011;10584;50.854;12.902;2023-03-13T11:21:53;2.63;;;1.37;;
20846;SDS011;10584;50.854;12.902;2023-03-13T11:32:55;2.97;;;1.60;;
20846;SDS011;10584;50.854;12.902;2023-03-13T11:38:39;2.40;;;1.60;;
20846;SDS011;10584;50.854;12.902;2023-03-13T12:06:02;2.60;;;1.40;;
20846;SDS011;10584;50.854;12.902;2023-03-13T12:11:54;2.67;;;1.67;;
20846;SDS011;10584;50.854;12.902;2023-03-13T12:17:34;4.80;;;1.67;;
20846;SDS011;10584;50.854;12.902;2023-03-13T12:23:44;2.90;;;1.47;;
20846;SDS011;10584;50.854;12.902;2023-03-13T12:34:28;2.63;;;1.37;;
20846;SDS011;10584;50.854;12.902;2023-03-13T12:40:10;6.03;;;1.60;;
20846;SDS011;10584;50.854;12.902;2023-03-13T12:51:32;2.93;;;1.17;;
20846;SDS011;10584;50.854;12.902;2023-03-13T13:03:01;3.00;;;1.10;;
20846;SDS011;10584;50.854;12.902;2023-03-13T13:08:37;4.13;;;1.30;;
20846;SDS011;10584;50.854;12.902;2023-03-13T13:25:00;3.27;;;1.70;;
20846;SDS011;10584;50.854;12.902;2023-03-13T13:30:37;2.40;;;1.47;;
20846;SDS011;10584;50.854;12.902;2023-03-13T13:41:33;4.20;;;1.83;;
20846;SDS011;10584;50.854;12.902;2023-03-13T13:46:56;2.13;;;1.60;;
20846;SDS011;10584;50.854;12.902;2023-03-13T13:52:29;3.10;;;1.80;;
20846;SDS011;10584;50.854;12.902;2023-03-13T13:58:10;3.60;;;1.90;;
20846;SDS011;10584;50.854;12.902;2023-03-13T14:03:43;4.03;;;2.00;;
20846;SDS011;10584;50.854;12.902;2023-03-13T14:09:48;4.37;;;2.10;;
20846;SDS011;10584;50.854;12.902;2023-03-13T14:15:07;5.33;;;2.10;;
20846;SDS011;10584;50.854;12.902;2023-03-13T14:20:35;4.30;;;1.73;;
20846;SDS011;10584;50.854;12.902;2023-03-13T14:25:57;3.40;;;1.60;;
20846;SDS011;10584;50.854;12.902;2023-03-13T14:31:32;3.13;;;1.80;;
20846;SDS011;10584;50.854;12.902;2023-03-13T14:36:56;4.93;;;1.60;;
20846;SDS011;10584;50.854;12.902;2023-03-13T14:42:40;2.90;;;1.90;;
20846;SDS011;10584;50.854;12.902;2023-03-13T14:53:59;4.70;;;1.57;;
20846;SDS011;10584;50.854;12.902;2023-03-13T14:59:23;2.50;;;1.77;;
20846;SDS011;10584;50.854;12.902;2023-03-13T15:10:31;2.80;;;1.50;;
20846;SDS011;10584;50.854;12.902;2023-03-13T15:16:02;3.07;;;1.73;;
20846;SDS011;10584;50.854;12.902;2023-03-13T15:21:44;3.80;;;2.07;;
20846;SDS011;10584;50.854;12.902;2023-03-13T15:27:15;4.10;;;2.20;;
20846;SDS011;10584;50.854;12.902;2023-03-13T15:32:38;2.50;;;1.90;;
20846;SDS011;10584;50.854;12.902;2023-03-13T15:38:01;6.17;;;2.60;;
20846;SDS011;10584;50.854;12.902;2023-03-13T15:43:23;4.30;;;2.17;;
20846;SDS011;10584;50.854;12.902;2023-03-13T15:48:45;5.47;;;2.07;;
20846;SDS011;10584;50.854;12.902;2023-03-13T15:54:07;5.27;;;2.13;;
20846;SDS011;10584;50.854;12.902;2023-03-13T15:59:28;5.53;;;2.23;;
20846;SDS011;10584;50.854;12.902;2023-03-13T16:04:50;3.87;;;2.20;;
20846;SDS011;10584;50.854;12.902;2023-03-13T16:10:23;5.20;;;2.47;;
20846;SDS011;10584;50.854;12.902;2023-03-13T16:15:46;5.57;;;2.67;;
20846;SDS011;10584;50.854;12.902;2023-03-13T16:21:09;3.60;;;2.30;;
20846;SDS011;10584;50.854;12.902;2023-03-13T16:26:38;5.50;;;2.37;;
20846;SDS011;10584;50.854;12.902;2023-03-13T16:32:02;12.27;;;4.67;;
20846;SDS011;10584;50.854;12.902;2023-03-13T16:37:24;4.97;;;2.37;;
20846;SDS011;10584;50.854;12.902;2023-03-13T16:42:46;7.37;;;3.00;;
20846;SDS011;10584;50.854;12.902;2023-03-13T16:48:10;3.70;;;2.30;;
20846;SDS011;10584;50.854;12.902;2023-03-13T16:53:35;6.20;;;2.40;;
20846;SDS011;10584;50.854;12.902;2023-03-13T16:58:57;7.67;;;2.60;;
20846;SDS011;10584;50.854;12.902;2023-03-13T17:04:20;4.10;;;2.33;;
20846;SDS011;10584;50.854;12.902;2023-03-13T17:09:42;4.53;;;2.80;;
20846;SDS011;10584;50.854;12.902;2023-03-13T17:15:03;6.67;;;2.60;;
20846;SDS011;10584;50.854;12.902;2023-03-13T17:20:26;4.73;;;2.60;;
20846;SDS011;10584;50.854;12.902;2023-03-13T17:25:49;4.30;;;2.70;;
20846;SDS011;10584;50.854;12.902;2023-03-13T17:31:10;5.37;;;2.60;;
20846;SDS011;10584;50.854;12.902;2023-03-13T17:36:32;8.03;;;2.97;;
20846;SDS011;10584;50.854;12.902;2023-03-13T17:41:54;8.20;;;3.63;;
20846;SDS011;10584;50.854;12.902;2023-03-13T17:47:25;5.27;;;2.90;;
20846;SDS011;10584;50.854;12.902;2023-03-13T17:52:47;5.33;;;2.87;;
20846;SDS011;10584;50.854;12.902;2023-03-13T17:58:09;5.90;;;2.67;;
20846;SDS011;10584;50.854;12.902;2023-03-13T18:03:32;4.33;;;2.70;;
20846;SDS011;10584;50.854;12.902;2023-03-13T18:08:58;4.70;;;2.90;;
20846;SDS011;10584;50.854;12.902;2023-03-13T18:14:22;7.00;;;3.30;;
20846;SDS011;10584;50.854;12.902;2023-03-13T18:19:44;5.50;;;3.33;;
20846;SDS011;10584;50.854;12.902;2023-03-13T18:25:06;5.30;;;3.13;;
20846;SDS011;10584;50.854;12.902;2023-03-13T18:30:29;7.50;;;3.10;;
20846;SDS011;10584;50.854;12.902;2023-03-13T18:35:50;6.47;;;2.60;;
20846;SDS011;10584;50.854;12.902;2023-03-13T18:41:12;6.17;;;3.27;;
20846;SDS011;10584;50.854;12.902;2023-03-13T18:46:34;7.40;;;3.30;;
20846;SDS011;10584;50.854;12.902;2023-03-13T18:51:56;10.07;;;3.20;;
20846;SDS011;10584;50.854;12.902;2023-03-13T18:57:18;3.53;;;1.20;;
20846;SDS011;10584;50.854;12.902;2023-03-13T19:02:39;3.63;;;1.27;;
20846;SDS011;10584;50.854;12.902;2023-03-13T19:08:04;2.17;;;1.10;;
20846;SDS011;10584;50.854;12.902;2023-03-13T19:13:27;1.37;;;0.80;;
20846;SDS011;10584;50.854;12.902;2023-03-13T19:18:53;4.13;;;1.60;;
20846;SDS011;10584;50.854;12.902;2023-03-13T19:24:16;3.23;;;1.20;;
20846;SDS011;10584;50.854;12.902;2023-03-13T19:29:38;9.33;;;1.47;;
20846;SDS011;10584;50.854;12.902;2023-03-13T19:35:00;5.47;;;1.40;;
20846;SDS011;10584;50.854;12.902;2023-03-13T19:40:24;2.60;;;1.20;;
20846;SDS011;10584;50.854;12.902;2023-03-13T19:45:48;4.50;;;1.07;;
20846;SDS011;10584;50.854;12.902;2023-03-13T19:51:09;4.47;;;1.00;;
20846;SDS011;10584;50.854;12.902;2023-03-13T19:56:31;4.53;;;1.20;;
20846;SDS011;10584;50.854;12.902;2023-03-13T20:01:53;3.57;;;1.60;;
20846;SDS011;10584;50.854;12.902;2023-03-13T20:07:15;2.30;;;1.30;;
20846;SDS011;10584;50.854;12.902;2023-03-13T20:12:36;5.87;;;1.50;;
20846;SDS011;10584;50.854;12.902;2023-03-13T20:17:58;2.87;;;1.23;;
20846;SDS011;10584;50.854;12.902;2023-03-13T20:23:20;1.70;;;1.10;;
20846;SDS011;10584;50.854;12.902;2023-03-13T20:28:42;1.90;;;1.10;;
20846;SDS011;10584;50.854;12.902;2023-03-13T20:34:05;2.63;;;1.30;;
20846;SDS011;10584;50.854;12.902;2023-03-13T20:39:27;2.73;;;1.10;;
20846;SDS011;10584;50.854;12.902;2023-03-13T20:44:49;3.07;;;1.40;;
20846;SDS011;10584;50.854;12.902;2023-03-13T20:50:10;3.13;;;1.50;;
20846;SDS011;10584;50.854;12.902;2023-03-13T20:55:32;2.60;;;1.50;;
20846;SDS011;10584;50.854;12.902;2023-03-13T21:00:59;4.13;;;1.33;;
20846;SDS011;10584;50.854;12.902;2023-03-13T21:06:21;2.20;;;1.40;;
20846;SDS011;10584;50.854;12.902;2023-03-13T21:11:43;3.50;;;1.20;;
20846;SDS011;10584;50.854;12.902;2023-03-13T21:17:04;3.33;;;1.60;;
20846;SDS011;10584;50.854;12.902;2023-03-13T21:22:29;3.63;;;1.40;;
20846;SDS011;10584;50.854;12.902;2023-03-13T21:27:50;2.77;;;1.60;;
20846;SDS011;10584;50.854;12.902;2023-03-13T21:33:12;4.43;;;1.60;;
20846;SDS011;10584;50.854;12.902;2023-03-13T21:38:34;4.47;;;1.43;;
20846;SDS011;10584;50.854;12.902;2023-03-13T21:43:56;3.73;;;2.00;;
20846;SDS011;10584;50.854;12.902;2023-03-13T21:49:17;5.30;;;2.37;;
20846;SDS011;10584;50.854;12.902;2023-03-13T21:54:40;3.43;;;1.87;;
20846;SDS011;10584;50.854;12.902;2023-03-13T22:00:02;3.50;;;1.70;;
20846;SDS011;10584;50.854;12.902;2023-03-13T22:05:28;3.77;;;1.50;;
20846;SDS011;10584;50.854;12.902;2023-03-13T22:10:51;2.53;;;1.27;;
20846;SDS011;10584;50.854;12.902;2023-03-13T22:16:14;3.97;;;1.30;;
20846;SDS011;10584;50.854;12.902;2023-03-13T22:21:36;1.60;;;1.17;;
20846;SDS011;10584;50.854;12.902;2023-03-13T22:26:57;6.67;;;1.40;;
20846;SDS011;10584;50.854;12.902;2023-03-13T22:32:19;2.20;;;1.20;;
20846;SDS011;10584;50.854;12.902;2023-03-13T22:37:41;3.07;;;1.20;;
20846;SDS011;10584;50.854;12.902;2023-03-13T22:43:02;2.77;;;1.30;;
20846;SDS011;10584;50.854;12.902;2023-03-13T22:48:24;2.27;;;1.30;;
20846;SDS011;10584;50.854;12.902;2023-03-13T22:53:46;3.83;;;1.40;;
20846;SDS011;10584;50.854;12.902;2023-03-13T22:59:08;2.63;;;1.40;;
20846;SDS011;10584;50.854;12.902;2023-03-13T23:04:29;2.57;;;1.30;;
20846;SDS011;10584;50.854;12.902;2023-03-13T23:09:51;2.90;;;1.30;;
20846;SDS011;10584;50.854;12.902;2023-03-13T23:15:13;2.57;;;1.37;;
20846;SDS011;10584;50.854;12.902;2023-03-13T23:20:34;2.90;;;1.47;;
20846;SDS011;10584;50.854;12.902;2023-03-13T23:26:03;2.43;;;1.50;;
20846;SDS011;10584;50.854;12.902;2023-03-13T23:31:27;1.70;;;1.30;;
20846;SDS011;10584;50.854;12.902;2023-03-13T23:36:49;2.80;;;1.33;;
20846;SDS011;10584;50.854;12.902;2023-03-13T23:42:10;2.80;;;1.10;;
20846;SDS011;10584;50.854;12.902;2023-03-13T23:47:32;1.23;;;1.10;;
20846;SDS011;10584;50.854;12.902;2023-03-13T23:52:54;1.73;;;1.20;;
20846;SDS011;10584;50.854;12.902;2023-03-13T23:58:15;4.23;;;1.10;;
